sensor_id;sensor_type;location;lat;lon;timestamp;P1;durP1;ratioP1;P2;durP2;ratioP2
55879;SDS011;41802;51.564;-1.838;2024-02-26T00:02:14;4.05;;;0.82;;
55879;SDS011;41802;51.564;-1.838;2024-02-26T00:04:42;8.00;;;0.93;;
55879;SDS011;41802;51.564;-1.838;2024-02-26T00:07:11;5.30;;;0.60;;
55879;SDS011;41802;51.564;-1.838;2024-02-26T00:09:47;6.95;;;0.95;;
55879;SDS011;41802;51.564;-1.838;2024-02-26T00:12:14;5.50;;;0.97;;
55879;SDS011;41802;51.564;-1.838;2024-02-26T00:14:42;8.43;;;1.20;;
55879;SDS011;41802;51.564;-1.838;2024-02-26T00:17:12;5.05;;;1.05;;
55879;SDS011;41802;51.564;-1.838;2024-02-26T00:19:41;3.97;;;0.70;;
55879;SDS011;41802;51.564;-1.838;2024-02-26T00:22:08;6.88;;;1.40;;
55879;SDS011;41802;51.564;-1.838;2024-02-26T00:24:36;5.27;;;0.90;;
55879;SDS011;41802;51.564;-1.838;2024-02-26T00:27:04;4.22;;;1.02;;
55879;SDS011;41802;51.564;-1.838;2024-02-26T00:29:32;4.72;;;0.63;;
55879;SDS011;41802;51.564;-1.838;2024-02-26T00:31:59;4.38;;;0.63;;
55879;SDS011;41802;51.564;-1.838;2024-02-26T00:34:31;4.38;;;0.98;;
55879;SDS011;41802;51.564;-1.838;2024-02-26T00:37:01;5.73;;;0.80;;
55879;SDS011;41802;51.564;-1.838;2024-02-26T00:39:28;9.13;;;0.73;;
55879;SDS011;41802;51.564;-1.838;2024-02-26T00:41:56;6.05;;;1.00;;
55879;SDS011;41802;51.564;-1.838;2024-02-26T00:44:24;6.65;;;1.08;;
55879;SDS011;41802;51.564;-1.838;2024-02-26T00:46:52;5.55;;;1.20;;
55879;SDS011;41802;51.564;-1.838;2024-02-26T00:49:20;5.07;;;1.10;;
55879;SDS011;41802;51.564;-1.838;2024-02-26T00:51:48;5.93;;;1.17;;
55879;SDS011;41802;51.564;-1.838;2024-02-26T00:54:18;6.22;;;1.05;;
55879;SDS011;41802;51.564;-1.838;2024-02-26T00:56:46;4.65;;;0.98;;
55879;SDS011;41802;51.564;-1.838;2024-02-26T00:59:14;3.90;;;0.88;;
55879;SDS011;41802;51.564;-1.838;2024-02-26T01:01:42;4.53;;;0.80;;
55879;SDS011;41802;51.564;-1.838;2024-02-26T01:04:09;4.85;;;0.80;;
55879;SDS011;41802;51.564;-1.838;2024-02-26T01:06:38;8.13;;;1.50;;
55879;SDS011;41802;51.564;-1.838;2024-02-26T01:09:06;5.47;;;0.68;;
55879;SDS011;41802;51.564;-1.838;2024-02-26T01:11:36;4.90;;;0.80;;
55879;SDS011;41802;51.564;-1.838;2024-02-26T01:14:03;4.77;;;0.83;;
55879;SDS011;41802;51.564;-1.838;2024-02-26T01:16:31;7.70;;;0.73;;
55879;SDS011;41802;51.564;-1.838;2024-02-26T01:18:59;4.18;;;0.80;;
55879;SDS011;41802;51.564;-1.838;2024-02-26T01:21:27;9.93;;;1.17;;
55879;SDS011;41802;51.564;-1.838;2024-02-26T01:23:55;7.32;;;1.20;;
55879;SDS011;41802;51.564;-1.838;2024-02-26T01:26:23;7.17;;;0.97;;
55879;SDS011;41802;51.564;-1.838;2024-02-26T01:28:52;6.68;;;1.00;;
55879;SDS011;41802;51.564;-1.838;2024-02-26T01:31:21;4.38;;;0.70;;
55879;SDS011;41802;51.564;-1.838;2024-02-26T01:33:49;5.60;;;0.88;;
55879;SDS011;41802;51.564;-1.838;2024-02-26T01:36:16;5.32;;;0.77;;
55879;SDS011;41802;51.564;-1.838;2024-02-26T01:38:44;5.27;;;0.80;;
55879;SDS011;41802;51.564;-1.838;2024-02-26T01:41:13;6.72;;;0.93;;
55879;SDS011;41802;51.564;-1.838;2024-02-26T01:43:41;4.53;;;0.57;;
55879;SDS011;41802;51.564;-1.838;2024-02-26T01:46:11;6.45;;;0.63;;
55879;SDS011;41802;51.564;-1.838;2024-02-26T01:48:41;4.97;;;0.70;;
55879;SDS011;41802;51.564;-1.838;2024-02-26T01:51:09;4.13;;;0.53;;
55879;SDS011;41802;51.564;-1.838;2024-02-26T01:53:38;3.67;;;0.40;;
55879;SDS011;41802;51.564;-1.838;2024-02-26T01:56:06;5.47;;;0.63;;
55879;SDS011;41802;51.564;-1.838;2024-02-26T01:58:34;5.75;;;0.40;;
55879;SDS011;41802;51.564;-1.838;2024-02-26T02:01:04;7.78;;;0.77;;
55879;SDS011;41802;51.564;-1.838;2024-02-26T02:03:34;4.10;;;0.60;;
55879;SDS011;41802;51.564;-1.838;2024-02-26T02:06:02;10.63;;;0.90;;
55879;SDS011;41802;51.564;-1.838;2024-02-26T02:08:30;3.55;;;0.40;;
55879;SDS011;41802;51.564;-1.838;2024-02-26T02:10:57;6.45;;;0.65;;
55879;SDS011;41802;51.564;-1.838;2024-02-26T02:13:26;4.50;;;0.60;;
55879;SDS011;41802;51.564;-1.838;2024-02-26T02:15:53;4.20;;;0.70;;
55879;SDS011;41802;51.564;-1.838;2024-02-26T02:18:21;5.63;;;0.93;;
55879;SDS011;41802;51.564;-1.838;2024-02-26T02:20:50;4.47;;;0.52;;
55879;SDS011;41802;51.564;-1.838;2024-02-26T02:23:18;5.05;;;0.90;;
55879;SDS011;41802;51.564;-1.838;2024-02-26T02:25:46;5.47;;;0.80;;
55879;SDS011;41802;51.564;-1.838;2024-02-26T02:28:14;6.53;;;1.07;;
55879;SDS011;41802;51.564;-1.838;2024-02-26T02:30:41;5.68;;;0.70;;
55879;SDS011;41802;51.564;-1.838;2024-02-26T02:33:09;6.75;;;0.88;;
55879;SDS011;41802;51.564;-1.838;2024-02-26T02:35:38;8.32;;;1.25;;
55879;SDS011;41802;51.564;-1.838;2024-02-26T02:38:08;5.47;;;1.00;;
55879;SDS011;41802;51.564;-1.838;2024-02-26T02:40:37;6.67;;;1.07;;
55879;SDS011;41802;51.564;-1.838;2024-02-26T02:43:04;5.47;;;0.85;;
55879;SDS011;41802;51.564;-1.838;2024-02-26T02:45:32;7.22;;;1.10;;
55879;SDS011;41802;51.564;-1.838;2024-02-26T02:48:00;7.80;;;1.42;;
55879;SDS011;41802;51.564;-1.838;2024-02-26T02:50:28;6.43;;;1.40;;
55879;SDS011;41802;51.564;-1.838;2024-02-26T02:52:57;4.93;;;1.00;;
55879;SDS011;41802;51.564;-1.838;2024-02-26T02:55:27;6.03;;;1.10;;
55879;SDS011;41802;51.564;-1.838;2024-02-26T02:57:55;4.60;;;0.82;;
55879;SDS011;41802;51.564;-1.838;2024-02-26T03:00:23;5.57;;;1.17;;
55879;SDS011;41802;51.564;-1.838;2024-02-26T03:02:51;5.15;;;0.85;;
55879;SDS011;41802;51.564;-1.838;2024-02-26T03:05:18;8.83;;;2.40;;
55879;SDS011;41802;51.564;-1.838;2024-02-26T03:07:46;4.65;;;0.90;;
55879;SDS011;41802;51.564;-1.838;2024-02-26T03:10:14;6.35;;;0.90;;
55879;SDS011;41802;51.564;-1.838;2024-02-26T03:12:43;8.63;;;1.35;;
55879;SDS011;41802;51.564;-1.838;2024-02-26T03:15:11;8.35;;;0.90;;
55879;SDS011;41802;51.564;-1.838;2024-02-26T03:17:39;4.77;;;0.93;;
55879;SDS011;41802;51.564;-1.838;2024-02-26T03:20:07;13.02;;;1.85;;
55879;SDS011;41802;51.564;-1.838;2024-02-26T03:22:35;9.52;;;1.23;;
55879;SDS011;41802;51.564;-1.838;2024-02-26T03:25:03;4.00;;;0.70;;
55879;SDS011;41802;51.564;-1.838;2024-02-26T03:27:32;7.30;;;1.52;;
55879;SDS011;41802;51.564;-1.838;2024-02-26T03:30:01;8.33;;;1.10;;
55879;SDS011;41802;51.564;-1.838;2024-02-26T03:32:30;7.20;;;1.10;;
55879;SDS011;41802;51.564;-1.838;2024-02-26T03:34:58;7.70;;;1.20;;
55879;SDS011;41802;51.564;-1.838;2024-02-26T03:37:26;6.97;;;0.90;;
55879;SDS011;41802;51.564;-1.838;2024-02-26T03:39:54;4.60;;;1.20;;
55879;SDS011;41802;51.564;-1.838;2024-02-26T03:42:23;5.23;;;1.30;;
55879;SDS011;41802;51.564;-1.838;2024-02-26T03:44:51;7.25;;;1.25;;
55879;SDS011;41802;51.564;-1.838;2024-02-26T03:47:20;6.07;;;0.90;;
55879;SDS011;41802;51.564;-1.838;2024-02-26T03:49:48;4.78;;;0.60;;
55879;SDS011;41802;51.564;-1.838;2024-02-26T03:52:16;4.88;;;0.73;;
55879;SDS011;41802;51.564;-1.838;2024-02-26T03:54:43;7.63;;;0.70;;
55879;SDS011;41802;51.564;-1.838;2024-02-26T03:57:11;4.00;;;0.70;;
55879;SDS011;41802;51.564;-1.838;2024-02-26T03:59:39;5.72;;;0.70;;
55879;SDS011;41802;51.564;-1.838;2024-02-26T04:02:07;5.97;;;0.70;;
55879;SDS011;41802;51.564;-1.838;2024-02-26T04:04:37;3.70;;;0.60;;
55879;SDS011;41802;51.564;-1.838;2024-02-26T04:07:06;6.10;;;0.60;;
55879;SDS011;41802;51.564;-1.838;2024-02-26T04:09:34;5.18;;;0.82;;
55879;SDS011;41802;51.564;-1.838;2024-02-26T04:12:02;6.75;;;0.68;;
55879;SDS011;41802;51.564;-1.838;2024-02-26T04:14:30;3.90;;;0.50;;
55879;SDS011;41802;51.564;-1.838;2024-02-26T04:16:57;6.15;;;0.50;;
55879;SDS011;41802;51.564;-1.838;2024-02-26T04:19:27;5.53;;;0.50;;
55879;SDS011;41802;51.564;-1.838;2024-02-26T04:21:56;5.97;;;0.52;;
55879;SDS011;41802;51.564;-1.838;2024-02-26T04:24:24;6.63;;;0.77;;
55879;SDS011;41802;51.564;-1.838;2024-02-26T04:26:52;5.55;;;0.77;;
55879;SDS011;41802;51.564;-1.838;2024-02-26T04:29:20;6.18;;;0.60;;
55879;SDS011;41802;51.564;-1.838;2024-02-26T04:31:47;5.77;;;1.13;;
55879;SDS011;41802;51.564;-1.838;2024-02-26T04:34:15;6.40;;;1.05;;
55879;SDS011;41802;51.564;-1.838;2024-02-26T04:36:43;6.25;;;1.17;;
55879;SDS011;41802;51.564;-1.838;2024-02-26T04:39:12;7.78;;;1.42;;
55879;SDS011;41802;51.564;-1.838;2024-02-26T04:41:45;5.95;;;1.08;;
55879;SDS011;41802;51.564;-1.838;2024-02-26T04:44:13;4.53;;;0.80;;
55879;SDS011;41802;51.564;-1.838;2024-02-26T04:46:41;5.28;;;1.00;;
55879;SDS011;41802;51.564;-1.838;2024-02-26T04:49:09;4.57;;;1.10;;
55879;SDS011;41802;51.564;-1.838;2024-02-26T04:51:37;5.93;;;0.80;;
55879;SDS011;41802;51.564;-1.838;2024-02-26T04:54:05;6.38;;;0.93;;
55879;SDS011;41802;51.564;-1.838;2024-02-26T04:56:35;5.17;;;1.20;;
55879;SDS011;41802;51.564;-1.838;2024-02-26T04:59:02;6.53;;;1.52;;
55879;SDS011;41802;51.564;-1.838;2024-02-26T05:01:30;6.80;;;1.45;;
55879;SDS011;41802;51.564;-1.838;2024-02-26T05:03:58;7.57;;;1.52;;
55879;SDS011;41802;51.564;-1.838;2024-02-26T05:06:26;6.63;;;1.67;;
55879;SDS011;41802;51.564;-1.838;2024-02-26T05:08:54;6.40;;;1.83;;
55879;SDS011;41802;51.564;-1.838;2024-02-26T05:11:21;6.15;;;1.38;;
55879;SDS011;41802;51.564;-1.838;2024-02-26T05:13:51;5.35;;;1.60;;
55879;SDS011;41802;51.564;-1.838;2024-02-26T05:16:18;10.30;;;1.40;;
55879;SDS011;41802;51.564;-1.838;2024-02-26T05:18:47;8.07;;;1.83;;
55879;SDS011;41802;51.564;-1.838;2024-02-26T05:21:16;8.77;;;1.93;;
55879;SDS011;41802;51.564;-1.838;2024-02-26T05:23:45;7.80;;;2.45;;
55879;SDS011;41802;51.564;-1.838;2024-02-26T05:26:18;8.27;;;1.70;;
55879;SDS011;41802;51.564;-1.838;2024-02-26T05:28:46;8.65;;;2.40;;
55879;SDS011;41802;51.564;-1.838;2024-02-26T05:31:16;8.85;;;2.15;;
55879;SDS011;41802;51.564;-1.838;2024-02-26T05:33:44;13.73;;;2.33;;
55879;SDS011;41802;51.564;-1.838;2024-02-26T05:36:17;10.23;;;1.90;;
55879;SDS011;41802;51.564;-1.838;2024-02-26T05:38:45;6.65;;;1.80;;
55879;SDS011;41802;51.564;-1.838;2024-02-26T05:41:14;8.48;;;1.90;;
55879;SDS011;41802;51.564;-1.838;2024-02-26T05:43:41;10.45;;;2.10;;
55879;SDS011;41802;51.564;-1.838;2024-02-26T05:46:09;9.60;;;1.93;;
55879;SDS011;41802;51.564;-1.838;2024-02-26T05:48:38;8.32;;;1.80;;
55879;SDS011;41802;51.564;-1.838;2024-02-26T05:51:07;7.97;;;1.52;;
55879;SDS011;41802;51.564;-1.838;2024-02-26T05:53:35;6.93;;;1.30;;
55879;SDS011;41802;51.564;-1.838;2024-02-26T05:56:03;7.88;;;1.50;;
55879;SDS011;41802;51.564;-1.838;2024-02-26T05:58:31;5.03;;;1.53;;
55879;SDS011;41802;51.564;-1.838;2024-02-26T06:00:58;5.82;;;1.23;;
55879;SDS011;41802;51.564;-1.838;2024-02-26T06:03:27;8.98;;;1.40;;
55879;SDS011;41802;51.564;-1.838;2024-02-26T06:06:00;8.43;;;1.80;;
55879;SDS011;41802;51.564;-1.838;2024-02-26T06:08:28;8.23;;;1.60;;
55879;SDS011;41802;51.564;-1.838;2024-02-26T06:10:56;7.90;;;1.30;;
55879;SDS011;41802;51.564;-1.838;2024-02-26T06:13:24;7.93;;;1.25;;
55879;SDS011;41802;51.564;-1.838;2024-02-26T06:15:52;9.25;;;1.15;;
55879;SDS011;41802;51.564;-1.838;2024-02-26T06:18:19;5.90;;;1.35;;
55879;SDS011;41802;51.564;-1.838;2024-02-26T06:20:47;5.70;;;1.00;;
55879;SDS011;41802;51.564;-1.838;2024-02-26T06:23:17;6.20;;;1.00;;
55879;SDS011;41802;51.564;-1.838;2024-02-26T06:25:44;4.88;;;1.00;;
55879;SDS011;41802;51.564;-1.838;2024-02-26T06:28:14;5.18;;;1.10;;
55879;SDS011;41802;51.564;-1.838;2024-02-26T06:30:42;6.47;;;1.17;;
55879;SDS011;41802;51.564;-1.838;2024-02-26T06:33:10;5.05;;;0.80;;
55879;SDS011;41802;51.564;-1.838;2024-02-26T06:35:39;5.80;;;0.93;;
55879;SDS011;41802;51.564;-1.838;2024-02-26T06:38:07;5.82;;;0.80;;
55879;SDS011;41802;51.564;-1.838;2024-02-26T06:40:37;8.80;;;1.05;;
55879;SDS011;41802;51.564;-1.838;2024-02-26T06:43:05;5.55;;;0.80;;
55879;SDS011;41802;51.564;-1.838;2024-02-26T06:45:32;12.15;;;1.00;;
55879;SDS011;41802;51.564;-1.838;2024-02-26T06:48:00;6.20;;;0.60;;
55879;SDS011;41802;51.564;-1.838;2024-02-26T06:50:39;4.97;;;0.70;;
55879;SDS011;41802;51.564;-1.838;2024-02-26T06:53:08;6.68;;;0.60;;
55879;SDS011;41802;51.564;-1.838;2024-02-26T06:55:38;4.15;;;0.73;;
55879;SDS011;41802;51.564;-1.838;2024-02-26T06:58:07;7.18;;;0.85;;
55879;SDS011;41802;51.564;-1.838;2024-02-26T07:00:34;5.73;;;0.73;;
55879;SDS011;41802;51.564;-1.838;2024-02-26T07:03:03;3.83;;;0.47;;
55879;SDS011;41802;51.564;-1.838;2024-02-26T07:05:31;9.25;;;1.00;;
55879;SDS011;41802;51.564;-1.838;2024-02-26T07:07:58;3.97;;;0.57;;
55879;SDS011;41802;51.564;-1.838;2024-02-26T07:10:26;9.23;;;0.77;;
55879;SDS011;41802;51.564;-1.838;2024-02-26T07:12:55;4.97;;;0.73;;
55879;SDS011;41802;51.564;-1.838;2024-02-26T07:15:23;4.00;;;0.50;;
55879;SDS011;41802;51.564;-1.838;2024-02-26T07:17:52;6.03;;;0.50;;
55879;SDS011;41802;51.564;-1.838;2024-02-26T07:20:22;3.67;;;0.40;;
55879;SDS011;41802;51.564;-1.838;2024-02-26T07:22:51;8.95;;;0.40;;
55879;SDS011;41802;51.564;-1.838;2024-02-26T07:25:18;3.83;;;0.60;;
55879;SDS011;41802;51.564;-1.838;2024-02-26T07:27:47;4.97;;;0.40;;
55879;SDS011;41802;51.564;-1.838;2024-02-26T07:30:16;5.60;;;0.35;;
55879;SDS011;41802;51.564;-1.838;2024-02-26T07:32:44;4.95;;;1.00;;
55879;SDS011;41802;51.564;-1.838;2024-02-26T07:35:16;5.63;;;0.52;;
55879;SDS011;41802;51.564;-1.838;2024-02-26T07:37:48;4.97;;;0.83;;
55879;SDS011;41802;51.564;-1.838;2024-02-26T07:40:17;7.40;;;1.10;;
55879;SDS011;41802;51.564;-1.838;2024-02-26T07:42:45;4.20;;;0.80;;
55879;SDS011;41802;51.564;-1.838;2024-02-26T07:45:13;5.63;;;0.63;;
55879;SDS011;41802;51.564;-1.838;2024-02-26T07:47:43;9.85;;;0.98;;
55879;SDS011;41802;51.564;-1.838;2024-02-26T07:50:11;3.77;;;0.47;;
55879;SDS011;41802;51.564;-1.838;2024-02-26T07:52:39;7.13;;;0.70;;
55879;SDS011;41802;51.564;-1.838;2024-02-26T07:55:07;7.80;;;1.02;;
55879;SDS011;41802;51.564;-1.838;2024-02-26T07:57:36;4.85;;;0.50;;
55879;SDS011;41802;51.564;-1.838;2024-02-26T08:00:05;5.63;;;0.40;;
55879;SDS011;41802;51.564;-1.838;2024-02-26T08:02:35;11.70;;;0.83;;
55879;SDS011;41802;51.564;-1.838;2024-02-26T08:05:05;4.60;;;0.60;;
55879;SDS011;41802;51.564;-1.838;2024-02-26T08:07:33;6.93;;;0.50;;
55879;SDS011;41802;51.564;-1.838;2024-02-26T08:10:01;8.70;;;0.70;;
55879;SDS011;41802;51.564;-1.838;2024-02-26T08:12:28;8.35;;;1.40;;
55879;SDS011;41802;51.564;-1.838;2024-02-26T08:14:56;5.87;;;0.60;;
55879;SDS011;41802;51.564;-1.838;2024-02-26T08:17:24;5.50;;;0.60;;
55879;SDS011;41802;51.564;-1.838;2024-02-26T08:19:54;6.00;;;0.40;;
55879;SDS011;41802;51.564;-1.838;2024-02-26T08:22:24;4.15;;;0.50;;
55879;SDS011;41802;51.564;-1.838;2024-02-26T08:24:52;5.10;;;0.65;;
55879;SDS011;41802;51.564;-1.838;2024-02-26T08:27:20;7.47;;;0.50;;
55879;SDS011;41802;51.564;-1.838;2024-02-26T08:29:51;6.53;;;0.70;;
55879;SDS011;41802;51.564;-1.838;2024-02-26T08:32:20;5.53;;;0.50;;
55879;SDS011;41802;51.564;-1.838;2024-02-26T08:34:48;6.50;;;0.65;;
55879;SDS011;41802;51.564;-1.838;2024-02-26T08:37:16;4.70;;;0.75;;
55879;SDS011;41802;51.564;-1.838;2024-02-26T08:39:45;3.87;;;0.57;;
55879;SDS011;41802;51.564;-1.838;2024-02-26T08:42:13;5.00;;;0.63;;
55879;SDS011;41802;51.564;-1.838;2024-02-26T08:44:41;4.95;;;0.75;;
55879;SDS011;41802;51.564;-1.838;2024-02-26T08:47:09;5.95;;;0.90;;
55879;SDS011;41802;51.564;-1.838;2024-02-26T08:49:37;7.03;;;0.80;;
55879;SDS011;41802;51.564;-1.838;2024-02-26T08:52:05;8.23;;;1.10;;
55879;SDS011;41802;51.564;-1.838;2024-02-26T08:54:33;4.55;;;0.80;;
55879;SDS011;41802;51.564;-1.838;2024-02-26T08:57:03;9.90;;;1.02;;
55879;SDS011;41802;51.564;-1.838;2024-02-26T08:59:32;7.28;;;0.88;;
55879;SDS011;41802;51.564;-1.838;2024-02-26T09:02:00;4.82;;;0.93;;
55879;SDS011;41802;51.564;-1.838;2024-02-26T09:04:27;9.67;;;1.07;;
55879;SDS011;41802;51.564;-1.838;2024-02-26T09:06:55;3.47;;;0.65;;
55879;SDS011;41802;51.564;-1.838;2024-02-26T09:09:23;5.75;;;0.70;;
55879;SDS011;41802;51.564;-1.838;2024-02-26T09:11:52;6.75;;;1.02;;
55879;SDS011;41802;51.564;-1.838;2024-02-26T09:14:23;6.70;;;0.68;;
55879;SDS011;41802;51.564;-1.838;2024-02-26T09:16:53;6.00;;;0.83;;
55879;SDS011;41802;51.564;-1.838;2024-02-26T09:19:21;6.95;;;1.35;;
55879;SDS011;41802;51.564;-1.838;2024-02-26T09:21:50;6.40;;;0.90;;
55879;SDS011;41802;51.564;-1.838;2024-02-26T09:24:18;6.07;;;0.73;;
55879;SDS011;41802;51.564;-1.838;2024-02-26T09:26:46;5.72;;;1.00;;
55879;SDS011;41802;51.564;-1.838;2024-02-26T09:29:14;4.13;;;0.47;;
55879;SDS011;41802;51.564;-1.838;2024-02-26T09:31:43;4.30;;;0.45;;
55879;SDS011;41802;51.564;-1.838;2024-02-26T09:34:13;4.88;;;0.47;;
55879;SDS011;41802;51.564;-1.838;2024-02-26T09:36:41;5.35;;;0.40;;
55879;SDS011;41802;51.564;-1.838;2024-02-26T09:39:10;4.05;;;0.43;;
55879;SDS011;41802;51.564;-1.838;2024-02-26T09:41:47;6.23;;;0.70;;
55879;SDS011;41802;51.564;-1.838;2024-02-26T09:44:15;6.68;;;0.90;;
55879;SDS011;41802;51.564;-1.838;2024-02-26T09:46:47;10.60;;;0.55;;
55879;SDS011;41802;51.564;-1.838;2024-02-26T09:49:15;5.25;;;1.10;;
55879;SDS011;41802;51.564;-1.838;2024-02-26T09:51:43;6.55;;;0.68;;
55879;SDS011;41802;51.564;-1.838;2024-02-26T09:54:11;4.33;;;0.67;;
55879;SDS011;41802;51.564;-1.838;2024-02-26T09:56:40;5.97;;;0.50;;
55879;SDS011;41802;51.564;-1.838;2024-02-26T09:59:25;5.97;;;0.50;;
55879;SDS011;41802;51.564;-1.838;2024-02-26T10:01:54;6.95;;;0.60;;
55879;SDS011;41802;51.564;-1.838;2024-02-26T10:04:23;6.63;;;0.75;;
55879;SDS011;41802;51.564;-1.838;2024-02-26T10:06:51;7.17;;;0.97;;
55879;SDS011;41802;51.564;-1.838;2024-02-26T10:09:20;5.65;;;0.50;;
55879;SDS011;41802;51.564;-1.838;2024-02-26T10:11:48;4.05;;;0.50;;
55879;SDS011;41802;51.564;-1.838;2024-02-26T10:14:17;5.32;;;0.40;;
55879;SDS011;41802;51.564;-1.838;2024-02-26T10:16:44;3.63;;;0.50;;
55879;SDS011;41802;51.564;-1.838;2024-02-26T10:19:19;3.83;;;0.40;;
55879;SDS011;41802;51.564;-1.838;2024-02-26T10:21:53;4.30;;;0.40;;
55879;SDS011;41802;51.564;-1.838;2024-02-26T10:24:22;4.57;;;0.70;;
55879;SDS011;41802;51.564;-1.838;2024-02-26T10:26:50;4.22;;;0.47;;
55879;SDS011;41802;51.564;-1.838;2024-02-26T10:29:18;5.35;;;0.70;;
55879;SDS011;41802;51.564;-1.838;2024-02-26T10:31:46;4.97;;;0.50;;
55879;SDS011;41802;51.564;-1.838;2024-02-26T10:34:16;5.55;;;0.47;;
55879;SDS011;41802;51.564;-1.838;2024-02-26T10:36:45;4.97;;;0.65;;
55879;SDS011;41802;51.564;-1.838;2024-02-26T10:39:21;4.88;;;0.73;;
55879;SDS011;41802;51.564;-1.838;2024-02-26T10:42:06;4.13;;;0.68;;
55879;SDS011;41802;51.564;-1.838;2024-02-26T10:44:39;3.47;;;0.60;;
55879;SDS011;41802;51.564;-1.838;2024-02-26T10:47:08;6.32;;;0.70;;
55879;SDS011;41802;51.564;-1.838;2024-02-26T10:49:36;4.35;;;0.90;;
55879;SDS011;41802;51.564;-1.838;2024-02-26T10:52:08;5.20;;;0.75;;
55879;SDS011;41802;51.564;-1.838;2024-02-26T10:54:36;3.30;;;0.50;;
55879;SDS011;41802;51.564;-1.838;2024-02-26T10:57:07;2.47;;;0.37;;
55879;SDS011;41802;51.564;-1.838;2024-02-26T10:59:36;4.45;;;0.68;;
55879;SDS011;41802;51.564;-1.838;2024-02-26T11:02:05;6.97;;;0.50;;
55879;SDS011;41802;51.564;-1.838;2024-02-26T11:04:35;3.70;;;0.52;;
55879;SDS011;41802;51.564;-1.838;2024-02-26T11:07:03;3.78;;;0.60;;
55879;SDS011;41802;51.564;-1.838;2024-02-26T11:09:35;5.40;;;0.83;;
55879;SDS011;41802;51.564;-1.838;2024-02-26T11:12:03;5.63;;;0.60;;
55879;SDS011;41802;51.564;-1.838;2024-02-26T11:14:37;4.70;;;0.73;;
55879;SDS011;41802;51.564;-1.838;2024-02-26T11:17:07;4.15;;;0.52;;
55879;SDS011;41802;51.564;-1.838;2024-02-26T11:19:35;8.40;;;0.70;;
55879;SDS011;41802;51.564;-1.838;2024-02-26T11:22:04;7.97;;;0.50;;
55879;SDS011;41802;51.564;-1.838;2024-02-26T11:24:48;3.88;;;0.60;;
55879;SDS011;41802;51.564;-1.838;2024-02-26T11:27:17;7.63;;;0.80;;
55879;SDS011;41802;51.564;-1.838;2024-02-26T11:29:46;7.53;;;0.52;;
55879;SDS011;41802;51.564;-1.838;2024-02-26T11:32:15;6.22;;;0.50;;
55879;SDS011;41802;51.564;-1.838;2024-02-26T11:34:44;8.13;;;0.50;;
55879;SDS011;41802;51.564;-1.838;2024-02-26T11:37:16;5.65;;;0.32;;
55879;SDS011;41802;51.564;-1.838;2024-02-26T11:39:45;4.65;;;0.40;;
55879;SDS011;41802;51.564;-1.838;2024-02-26T11:42:15;5.07;;;0.32;;
55879;SDS011;41802;51.564;-1.838;2024-02-26T11:44:43;4.80;;;0.40;;
55879;SDS011;41802;51.564;-1.838;2024-02-26T11:47:11;7.20;;;0.80;;
55879;SDS011;41802;51.564;-1.838;2024-02-26T11:49:39;4.45;;;0.63;;
55879;SDS011;41802;51.564;-1.838;2024-02-26T11:52:08;5.18;;;0.40;;
55879;SDS011;41802;51.564;-1.838;2024-02-26T11:54:39;4.75;;;0.50;;
55879;SDS011;41802;51.564;-1.838;2024-02-26T11:57:27;4.07;;;0.60;;
55879;SDS011;41802;51.564;-1.838;2024-02-26T11:59:57;5.03;;;0.40;;
55879;SDS011;41802;51.564;-1.838;2024-02-26T12:05:11;4.85;;;0.40;;
55879;SDS011;41802;51.564;-1.838;2024-02-26T12:07:48;2.72;;;0.22;;
55879;SDS011;41802;51.564;-1.838;2024-02-26T12:10:21;3.72;;;0.30;;
55879;SDS011;41802;51.564;-1.838;2024-02-26T12:12:56;4.73;;;1.00;;
55879;SDS011;41802;51.564;-1.838;2024-02-26T12:15:31;5.75;;;0.40;;
55879;SDS011;41802;51.564;-1.838;2024-02-26T12:18:01;4.32;;;0.60;;
55879;SDS011;41802;51.564;-1.838;2024-02-26T12:20:29;3.30;;;0.38;;
55879;SDS011;41802;51.564;-1.838;2024-02-26T12:22:57;4.25;;;0.50;;
55879;SDS011;41802;51.564;-1.838;2024-02-26T12:25:25;3.33;;;0.40;;
55879;SDS011;41802;51.564;-1.838;2024-02-26T12:27:54;5.40;;;0.52;;
55879;SDS011;41802;51.564;-1.838;2024-02-26T12:30:23;5.10;;;0.50;;
55879;SDS011;41802;51.564;-1.838;2024-02-26T12:32:52;4.53;;;0.40;;
55879;SDS011;41802;51.564;-1.838;2024-02-26T12:35:23;4.18;;;0.30;;
55879;SDS011;41802;51.564;-1.838;2024-02-26T12:37:51;4.27;;;0.30;;
55879;SDS011;41802;51.564;-1.838;2024-02-26T12:40:20;4.18;;;0.50;;
55879;SDS011;41802;51.564;-1.838;2024-02-26T12:42:48;3.67;;;0.50;;
55879;SDS011;41802;51.564;-1.838;2024-02-26T12:45:16;1.92;;;0.30;;
55879;SDS011;41802;51.564;-1.838;2024-02-26T12:47:45;8.20;;;0.50;;
55879;SDS011;41802;51.564;-1.838;2024-02-26T12:50:14;3.17;;;0.30;;
55879;SDS011;41802;51.564;-1.838;2024-02-26T12:52:43;4.15;;;0.30;;
55879;SDS011;41802;51.564;-1.838;2024-02-26T12:55:11;4.50;;;0.38;;
55879;SDS011;41802;51.564;-1.838;2024-02-26T12:57:41;2.70;;;0.20;;
55879;SDS011;41802;51.564;-1.838;2024-02-26T13:00:16;3.15;;;0.50;;
55879;SDS011;41802;51.564;-1.838;2024-02-26T13:02:46;5.90;;;0.50;;
55879;SDS011;41802;51.564;-1.838;2024-02-26T13:05:13;4.80;;;0.57;;
55879;SDS011;41802;51.564;-1.838;2024-02-26T13:07:41;4.15;;;0.40;;
55879;SDS011;41802;51.564;-1.838;2024-02-26T13:10:09;5.28;;;0.65;;
55879;SDS011;41802;51.564;-1.838;2024-02-26T13:12:42;8.52;;;0.68;;
55879;SDS011;41802;51.564;-1.838;2024-02-26T13:15:13;5.60;;;0.40;;
55879;SDS011;41802;51.564;-1.838;2024-02-26T13:17:41;3.88;;;0.52;;
55879;SDS011;41802;51.564;-1.838;2024-02-26T13:20:11;3.22;;;0.50;;
55879;SDS011;41802;51.564;-1.838;2024-02-26T13:22:39;4.40;;;0.45;;
55879;SDS011;41802;51.564;-1.838;2024-02-26T13:25:07;6.05;;;0.77;;
55879;SDS011;41802;51.564;-1.838;2024-02-26T13:27:35;4.67;;;0.67;;
55879;SDS011;41802;51.564;-1.838;2024-02-26T13:30:03;3.70;;;0.77;;
55879;SDS011;41802;51.564;-1.838;2024-02-26T13:32:32;4.40;;;0.80;;
55879;SDS011;41802;51.564;-1.838;2024-02-26T13:35:07;6.75;;;0.85;;
55879;SDS011;41802;51.564;-1.838;2024-02-26T13:37:36;5.20;;;0.70;;
55879;SDS011;41802;51.564;-1.838;2024-02-26T13:40:05;3.70;;;0.60;;
55879;SDS011;41802;51.564;-1.838;2024-02-26T13:42:33;5.57;;;0.70;;
55879;SDS011;41802;51.564;-1.838;2024-02-26T13:45:01;5.03;;;0.85;;
55879;SDS011;41802;51.564;-1.838;2024-02-26T13:47:29;4.47;;;0.40;;
55879;SDS011;41802;51.564;-1.838;2024-02-26T13:49:59;4.53;;;0.60;;
55879;SDS011;41802;51.564;-1.838;2024-02-26T13:52:28;3.43;;;0.60;;
55879;SDS011;41802;51.564;-1.838;2024-02-26T13:54:59;7.68;;;0.88;;
55879;SDS011;41802;51.564;-1.838;2024-02-26T13:57:29;3.92;;;0.60;;
55879;SDS011;41802;51.564;-1.838;2024-02-26T13:59:56;6.70;;;0.60;;
55879;SDS011;41802;51.564;-1.838;2024-02-26T14:02:24;4.90;;;0.70;;
55879;SDS011;41802;51.564;-1.838;2024-02-26T14:04:53;4.10;;;0.80;;
55879;SDS011;41802;51.564;-1.838;2024-02-26T14:07:21;6.20;;;0.70;;
55879;SDS011;41802;51.564;-1.838;2024-02-26T14:09:50;4.00;;;0.77;;
55879;SDS011;41802;51.564;-1.838;2024-02-26T14:12:20;4.28;;;0.50;;
55879;SDS011;41802;51.564;-1.838;2024-02-26T14:14:50;4.05;;;0.50;;
55879;SDS011;41802;51.564;-1.838;2024-02-26T14:17:20;4.43;;;0.60;;
55879;SDS011;41802;51.564;-1.838;2024-02-26T14:19:47;3.13;;;0.63;;
55879;SDS011;41802;51.564;-1.838;2024-02-26T14:22:16;5.78;;;0.63;;
55879;SDS011;41802;51.564;-1.838;2024-02-26T14:24:44;5.63;;;0.70;;
55879;SDS011;41802;51.564;-1.838;2024-02-26T14:27:12;4.70;;;1.05;;
55879;SDS011;41802;51.564;-1.838;2024-02-26T14:29:43;7.27;;;0.90;;
55879;SDS011;41802;51.564;-1.838;2024-02-26T14:32:12;4.45;;;0.60;;
55879;SDS011;41802;51.564;-1.838;2024-02-26T14:34:39;3.53;;;0.82;;
55879;SDS011;41802;51.564;-1.838;2024-02-26T14:37:07;4.00;;;0.60;;
55879;SDS011;41802;51.564;-1.838;2024-02-26T14:39:35;3.95;;;0.60;;
55879;SDS011;41802;51.564;-1.838;2024-02-26T14:42:13;4.53;;;0.60;;
55879;SDS011;41802;51.564;-1.838;2024-02-26T14:44:45;5.60;;;1.00;;
55879;SDS011;41802;51.564;-1.838;2024-02-26T14:47:14;3.70;;;0.77;;